Time;durP1;ratioP1;P1;durP2;ratioP2;P2;SDS_P1;SDS_P2;PMS_P1;PMS_P2;Temp;Humidity;BMP_temperature;BMP_pressure;BME280_temperature;BME280_humidity;BME280_pressure;Samples;Min_cycle;Max_cycle;Signal;HPM_P1;HPM_P2
2022/04/07 00:01:13;;;;;;;19.98;11.10;;;;;;;3.30;100.00;99957.38;1754564;82;21201;-83
2022/04/07 00:04:21;;;;;;;17.60;11.08;;;;;;;3.24;100.00;99952.50;1753511;81;21795;-83
2022/04/07 00:07:28;;;;;;;22.00;11.63;;;;;;;3.17;100.00;99949.51;1753972;82;21178;-84
2022/04/07 00:10:35;;;;;;;16.07;10.78;;;;;;;3.13;100.00;99952.12;1754558;82;21155;-83
2022/04/07 00:13:42;;;;;;;22.00;12.23;;;;;;;3.10;100.00;99955.09;1753082;81;21209;-83
2022/04/07 00:16:47;;;;;;;16.50;10.90;;;;;;;3.07;100.00;99961.64;1753237;81;21236;-83
2022/04/07 00:19:54;;;;;;;21.00;13.72;;;;;;;3.04;100.00;99957.84;1753790;81;21200;-83
2022/04/07 00:23:01;;;;;;;17.57;11.30;;;;;;;3.02;100.00;99961.20;1754650;82;21225;-84
2022/04/07 00:26:08;;;;;;;17.73;11.90;;;;;;;3.06;100.00;99957.73;1754540;82;21735;-83
2022/04/07 00:29:17;;;;;;;21.62;13.13;;;;;;;3.09;100.00;99964.20;1753401;82;21186;-83
2022/04/07 00:32:24;;;;;;;23.85;13.53;;;;;;;3.15;100.00;99956.03;1753732;82;21190;-84
2022/04/07 00:35:29;;;;;;;25.20;13.00;;;;;;;3.20;100.00;99970.87;1753524;82;21245;-83
2022/04/07 00:38:35;;;;;;;17.50;12.58;;;;;;;3.29;100.00;99973.22;1753039;81;21197;-83
2022/04/07 00:41:42;;;;;;;22.77;15.43;;;;;;;3.36;100.00;99965.42;1754243;82;21727;-82
2022/04/07 00:44:49;;;;;;;23.77;14.63;;;;;;;3.45;100.00;99965.95;1754443;82;21151;-83
2022/04/07 00:47:58;;;;;;;27.58;17.25;;;;;;;3.50;100.00;99956.41;1753251;82;21234;-82
2022/04/07 00:51:03;;;;;;;21.50;14.53;;;;;;;3.56;100.00;99952.29;1750411;81;21187;-83
2022/04/07 00:54:09;;;;;;;22.15;16.97;;;;;;;3.62;100.00;99950.87;1741602;82;21135;-83
2022/04/07 00:57:16;;;;;;;21.90;16.02;;;;;;;3.66;100.00;99945.03;1741425;82;21215;-82
2022/04/07 01:00:23;;;;;;;24.72;16.32;;;;;;;3.70;100.00;99955.94;1741429;82;21249;-83
2022/04/07 01:03:29;;;;;;;27.93;16.75;;;;;;;3.75;100.00;99948.25;1740152;82;21196;-83
2022/04/07 01:06:34;;;;;;;33.50;17.90;;;;;;;3.78;100.00;99947.98;1740068;82;21484;-83
2022/04/07 01:09:41;;;;;;;31.65;19.95;;;;;;;3.80;100.00;99948.67;1740199;81;21198;-83
2022/04/07 01:12:48;;;;;;;28.40;17.23;;;;;;;3.82;100.00;99955.32;1739960;81;21206;-84
2022/04/07 01:15:54;;;;;;;21.57;15.83;;;;;;;3.84;100.00;99946.55;1740030;81;21175;-83
2022/04/07 01:18:56;;;;;;;22.02;17.67;;;;;;;3.84;100.00;99946.05;1740291;82;21222;-82
2022/04/07 01:22:02;;;;;;;28.20;19.17;;;;;;;3.83;100.00;99938.94;1739860;82;21174;-83
2022/04/07 01:25:09;;;;;;;23.05;16.35;;;;;;;3.84;100.00;99943.34;1740166;81;21218;-83
2022/04/07 01:28:15;;;;;;;25.48;19.30;;;;;;;3.85;100.00;99943.69;1740050;81;21203;-83
2022/04/07 01:31:20;;;;;;;24.65;16.62;;;;;;;3.86;100.00;99944.58;1741448;82;21692;-83
2022/04/07 01:34:26;;;;;;;26.55;18.05;;;;;;;3.90;100.00;99947.83;1741512;82;21740;-83
2022/04/07 01:37:33;;;;;;;35.25;22.50;;;;;;;3.93;100.00;99950.26;1740938;81;21736;-83
2022/04/07 01:40:41;;;;;;;29.67;20.48;;;;;;;3.94;100.00;99950.11;1739147;82;21167;-83
2022/04/07 01:43:48;;;;;;;30.77;23.25;;;;;;;3.96;100.00;99954.05;1738993;82;21183;-83
2022/04/07 01:46:55;;;;;;;32.50;21.77;;;;;;;3.99;100.00;99951.03;1738792;81;21791;-84
2022/04/07 01:50:15;;;;;;;37.20;24.23;;;;;;;4.05;100.00;99953.19;1741499;81;21640;-84
2022/04/07 01:53:22;;;;;;;37.53;25.37;;;;;;;4.08;100.00;99948.32;1744114;81;21179;-84
2022/04/07 01:56:30;;;;;;;44.20;26.07;;;;;;;4.15;100.00;99951.83;1745691;82;21732;-84
2022/04/07 01:59:36;;;;;;;38.65;24.80;;;;;;;4.20;100.00;99949.03;1758940;81;21212;-83
2022/04/07 02:02:42;;;;;;;38.63;25.23;;;;;;;4.26;100.00;99955.22;1775871;81;21189;-82
2022/04/07 02:05:47;;;;;;;34.20;24.60;;;;;;;4.31;100.00;99952.92;1776649;81;21193;-82
2022/04/07 02:08:54;;;;;;;31.75;23.05;;;;;;;4.38;100.00;99951.02;1777342;81;21173;-83
2022/04/07 02:12:02;;;;;;;35.88;24.90;;;;;;;4.43;100.00;99952.28;1776369;80;21777;-83
2022/04/07 02:15:08;;;;;;;35.20;25.08;;;;;;;4.47;100.00;99947.41;1777631;81;21717;-83
2022/04/07 02:18:14;;;;;;;31.55;24.80;;;;;;;4.52;100.00;99947.84;1776633;81;21213;-83
2022/04/07 02:21:20;;;;;;;37.73;26.65;;;;;;;4.55;100.00;99946.18;1776417;81;21236;-83
2022/04/07 02:24:25;;;;;;;33.48;24.85;;;;;;;4.56;100.00;99949.23;1777770;81;21659;-83
2022/04/07 02:27:31;;;;;;;43.33;27.55;;;;;;;4.57;100.00;99952.32;1776365;81;21228;-84
2022/04/07 02:30:36;;;;;;;38.75;27.40;;;;;;;4.60;100.00;99947.95;1776280;81;21169;-83
2022/04/07 02:33:42;;;;;;;37.83;26.85;;;;;;;4.63;100.00;99950.38;1777456;81;21169;-84
2022/04/07 02:36:48;;;;;;;38.88;28.50;;;;;;;4.69;100.00;99950.28;1777146;81;21683;-84
2022/04/07 02:39:54;;;;;;;41.08;29.15;;;;;;;4.71;100.00;99949.14;1777441;81;21750;-83
2022/04/07 02:43:02;;;;;;;36.05;26.55;;;;;;;4.75;100.00;99949.20;1776672;81;21746;-83
2022/04/07 02:46:09;;;;;;;38.55;25.60;;;;;;;4.80;100.00;99957.75;1777755;81;21213;-83
2022/04/07 02:49:15;;;;;;;41.10;28.02;;;;;;;4.84;100.00;99952.86;1777602;81;21146;-83
2022/04/07 02:52:21;;;;;;;32.67;24.65;;;;;;;4.86;100.00;99950.88;1777137;81;21169;-83
2022/04/07 02:55:22;;;;;;;36.80;26.20;;;;;;;4.88;100.00;99949.70;1777713;81;22058;-83
2022/04/07 02:58:14;;;;;;;39.40;26.07;;;;;;;4.90;100.00;99947.37;1776262;81;21738;-84
2022/04/07 03:01:01;;;;;;;38.88;28.47;;;;;;;4.90;100.00;99944.66;1776809;81;21181;-83
2022/04/07 03:04:09;;;;;;;37.35;26.87;;;;;;;4.88;100.00;99947.50;1777626;81;21158;-83
2022/04/07 03:07:16;;;;;;;43.87;28.83;;;;;;;4.88;100.00;99942.92;1777415;81;21225;-83
2022/04/07 03:10:23;;;;;;;48.52;28.02;;;;;;;4.90;100.00;99944.16;1777327;81;21185;-83
2022/04/07 03:13:29;;;;;;;39.23;28.57;;;;;;;4.91;100.00;99939.08;1776224;81;21185;-83
2022/04/07 03:16:35;;;;;;;35.63;25.65;;;;;;;4.91;100.00;99945.00;1776035;81;21228;-83
2022/04/07 03:19:41;;;;;;;36.83;25.23;;;;;;;4.89;100.00;99950.55;1776171;81;21165;-83
2022/04/07 03:22:47;;;;;;;30.97;24.92;;;;;;;4.90;100.00;99951.44;1777251;81;21817;-83
2022/04/07 03:25:53;;;;;;;35.65;24.05;;;;;;;4.90;100.00;99953.64;1777654;81;21158;-83
2022/04/07 03:29:00;;;;;;;35.52;24.82;;;;;;;4.89;100.00;99950.55;1776388;80;21676;-83
2022/04/07 03:32:05;;;;;;;41.20;26.07;;;;;;;4.87;100.00;99950.71;1777193;81;21207;-83
2022/04/07 03:35:11;;;;;;;33.88;25.05;;;;;;;4.86;100.00;99946.30;1777804;81;21125;-83
2022/04/07 03:38:17;;;;;;;34.88;25.52;;;;;;;4.87;100.00;99952.06;1777692;81;21145;-83
2022/04/07 03:41:22;;;;;;;38.88;25.50;;;;;;;4.88;100.00;99951.05;1777789;81;21137;-82
2022/04/07 03:44:27;;;;;;;27.73;20.17;;;;;;;4.89;100.00;99957.33;1777725;81;21153;-83
2022/04/07 03:47:34;;;;;;;33.02;23.18;;;;;;;4.91;100.00;99958.55;1777715;80;21735;-83
2022/04/07 03:50:40;;;;;;;33.70;21.85;;;;;;;4.88;100.00;99953.77;1777826;81;21213;-83
2022/04/07 03:53:46;;;;;;;31.55;22.13;;;;;;;4.87;100.00;99953.42;1777446;80;21162;-83
2022/04/07 03:56:51;;;;;;;32.38;20.95;;;;;;;4.88;100.00;99956.48;1772061;81;21724;-83
2022/04/07 03:59:57;;;;;;;28.32;20.92;;;;;;;4.88;100.00;99954.27;1772121;81;21154;-83
2022/04/07 04:03:06;;;;;;;26.57;19.02;;;;;;;4.90;100.00;99957.70;1770703;81;21195;-83
2022/04/07 04:06:12;;;;;;;28.23;22.17;;;;;;;4.92;100.00;99954.84;1772161;81;21161;-83
2022/04/07 04:09:17;;;;;;;21.00;16.85;;;;;;;4.94;100.00;99950.11;1771417;81;21201;-82
2022/04/07 04:12:25;;;;;;;29.45;20.92;;;;;;;5.01;100.00;99958.86;1770713;81;21168;-83
2022/04/07 04:15:32;;;;;;;31.80;19.55;;;;;;;5.03;100.00;99950.56;1772227;81;21130;-83
2022/04/07 04:18:39;;;;;;;25.57;17.73;;;;;;;5.01;100.00;99953.95;1770515;81;21197;-83
2022/04/07 04:21:45;;;;;;;28.15;20.27;;;;;;;4.98;100.00;99955.59;1770553;81;21177;-84
2022/04/07 04:24:51;;;;;;;26.35;18.55;;;;;;;4.95;100.00;99965.39;1771603;81;21185;-84
2022/04/07 04:27:57;;;;;;;26.57;18.90;;;;;;;4.92;100.00;99968.39;1770532;81;21243;-84
2022/04/07 04:31:05;;;;;;;21.45;17.50;;;;;;;4.88;100.00;99971.38;1771972;81;21217;-83
2022/04/07 04:34:11;;;;;;;25.97;18.52;;;;;;;4.86;100.00;99973.41;1772013;81;21221;-83
2022/04/07 04:37:17;;;;;;;28.30;17.73;;;;;;;4.88;100.00;99978.16;1771549;81;21181;-83
2022/04/07 04:40:22;;;;;;;25.20;16.62;;;;;;;4.97;100.00;99980.99;1771931;81;21165;-83
2022/04/07 04:43:27;;;;;;;20.92;15.88;;;;;;;5.01;100.00;99985.12;1770636;81;21221;-84
2022/04/07 04:46:35;;;;;;;20.77;14.43;;;;;;;5.07;100.00;99988.58;1770576;81;21154;-83
2022/04/07 04:49:42;;;;;;;18.10;14.68;;;;;;;5.18;100.00;99983.49;1770655;81;21497;-83
2022/04/07 04:52:41;;;;;;;20.82;14.50;;;;;;;5.27;100.00;99983.45;1770932;81;21177;-83
2022/04/07 04:55:41;;;;;;;20.37;15.53;;;;;;;5.39;100.00;99985.44;1776176;80;21189;-83
2022/04/07 04:58:48;;;;;;;19.00;14.10;;;;;;;5.56;100.00;99983.78;1785879;80;21141;-83
2022/04/07 05:01:52;;;;;;;17.67;13.78;;;;;;;5.72;100.00;99979.03;1785861;80;21193;-84
2022/04/07 05:04:59;;;;;;;20.92;13.28;;;;;;;5.82;100.00;99983.38;1785616;80;21105;-83
2022/04/07 05:08:06;;;;;;;13.38;10.80;;;;;;;5.89;100.00;99977.70;1781886;80;21157;-83
2022/04/07 05:11:13;;;;;;;17.92;13.40;;;;;;;5.99;100.00;99979.52;1784199;80;21204;-84
2022/04/07 05:14:18;;;;;;;18.35;12.78;;;;;;;5.97;100.00;99979.66;1784264;80;21722;-83
2022/04/07 05:17:27;;;;;;;16.93;13.25;;;;;;;5.98;100.00;99971.03;1783898;80;21200;-83
2022/04/07 05:20:33;;;;;;;18.48;12.70;;;;;;;6.02;100.00;99971.92;1784353;80;21822;-82
2022/04/07 05:23:41;;;;;;;17.23;12.23;;;;;;;6.13;100.00;99973.03;1761247;80;21174;-83
2022/04/07 05:26:47;;;;;;;18.92;13.08;;;;;;;6.29;100.00;99971.46;1753555;82;21225;-83
2022/04/07 05:29:53;;;;;;;16.85;11.83;;;;;;;6.43;100.00;99970.05;1753595;82;21226;-83
2022/04/07 05:33:00;;;;;;;19.12;12.55;;;;;;;6.54;100.00;99962.51;1752662;82;21854;-84
2022/04/07 05:36:08;;;;;;;14.00;11.35;;;;;;;6.69;100.00;99964.13;1753401;82;21170;-77
2022/04/07 05:39:07;;;;;;;16.32;12.03;;;;;;;6.84;100.00;99959.80;1751872;80;21148;-83
2022/04/07 05:42:13;;;;;;;17.65;12.18;;;;;;;7.00;100.00;99959.03;1752653;82;21203;-83
2022/04/07 05:45:19;;;;;;;11.25;9.65;;;;;;;7.16;100.00;99959.64;1752905;82;21136;-82
2022/04/07 05:48:27;;;;;;;12.85;10.63;;;;;;;7.32;100.00;99965.14;1752908;80;21174;-83
2022/04/07 05:51:33;;;;;;;12.73;9.65;;;;;;;7.47;98.53;99964.00;1761740;80;21196;-83
2022/04/07 05:54:39;;;;;;;12.60;8.88;;;;;;;7.63;97.42;99953.70;1782604;80;21224;-83
2022/04/07 05:57:46;;;;;;;13.13;9.95;;;;;;;7.81;96.43;99948.98;1778285;80;21457;-83
2022/04/07 06:00:53;;;;;;;14.80;10.10;;;;;;;8.02;95.00;99947.63;1771140;80;21200;-83
2022/04/07 06:03:59;;;;;;;10.70;8.53;;;;;;;8.20;93.57;99949.70;1742110;80;21168;-83
2022/04/07 06:07:04;;;;;;;14.13;9.53;;;;;;;8.37;91.89;99938.30;1748134;81;21188;-83
2022/04/07 06:10:11;;;;;;;15.25;9.45;;;;;;;8.51;90.65;99953.11;1769775;81;21232;-84
2022/04/07 06:13:17;;;;;;;11.57;8.95;;;;;;;8.68;89.37;99945.26;1768721;81;21188;-83
2022/04/07 06:16:25;;;;;;;14.47;8.63;;;;;;;8.86;88.04;99939.09;1751674;80;21163;-83
2022/04/07 06:19:31;;;;;;;12.55;8.28;;;;;;;9.07;86.73;99945.33;1737663;82;21169;-83
2022/04/07 06:22:37;;;;;;;9.40;7.30;;;;;;;9.26;85.41;99950.88;1713365;82;21191;-83
2022/04/07 06:25:41;;;;;;;10.20;6.90;;;;;;;9.41;83.81;99949.63;1710275;83;21674;-83
2022/04/07 06:28:47;;;;;;;10.93;7.85;;;;;;;9.56;82.59;99949.23;1702937;84;21791;-83
2022/04/07 06:31:55;;;;;;;8.30;7.15;;;;;;;9.72;81.96;99947.77;1702912;84;21205;-83
2022/04/07 06:35:01;;;;;;;11.45;7.00;;;;;;;9.84;80.09;99946.01;1702977;84;21221;-83
2022/04/07 06:38:07;;;;;;;8.08;6.62;;;;;;;9.84;78.65;99946.86;1718024;83;21202;-83
2022/04/07 06:41:14;;;;;;;12.45;5.72;;;;;;;9.90;78.88;99945.27;1733491;83;21229;-83
2022/04/07 06:44:21;;;;;;;8.88;5.85;;;;;;;10.03;78.12;99941.95;1715976;83;21815;-83
2022/04/07 06:47:27;;;;;;;6.87;6.05;;;;;;;10.15;77.97;99943.21;1702882;84;21794;-83
2022/04/07 06:50:33;;;;;;;12.05;6.67;;;;;;;10.31;77.58;99939.03;1716209;83;21157;-83
2022/04/07 06:53:40;;;;;;;9.68;6.55;;;;;;;10.46;76.19;99937.18;1726223;83;21583;-83
2022/04/07 06:56:45;;;;;;;8.60;5.58;;;;;;;10.58;74.97;99940.30;1726442;83;21165;-84
2022/04/07 06:59:53;;;;;;;11.93;5.65;;;;;;;10.71;74.83;99939.68;1721106;83;21220;-83
2022/04/07 07:03:06;;;;;;;7.72;6.08;;;;;;;10.87;73.67;99938.16;1702004;83;21265;-83
2022/04/07 07:06:12;;;;;;;6.80;5.00;;;;;;;11.01;73.23;99941.95;1691423;83;21220;-84
2022/04/07 07:09:19;;;;;;;7.28;5.47;;;;;;;11.18;73.13;99940.70;1689770;85;21491;-84
2022/04/07 07:12:26;;;;;;;6.65;5.17;;;;;;;11.36;72.84;99940.31;1689632;85;21201;-83
2022/04/07 07:15:32;;;;;;;7.45;5.15;;;;;;;11.49;71.66;99941.86;1703806;83;21284;-83
2022/04/07 07:18:41;;;;;;;8.58;4.90;;;;;;;11.59;70.68;99940.72;1691583;85;21785;-84
2022/04/07 07:21:46;;;;;;;5.58;4.55;;;;;;;11.72;70.20;99940.36;1692140;84;21746;-84
2022/04/07 07:24:52;;;;;;;8.80;5.17;;;;;;;11.87;69.60;99936.23;1692628;85;21197;-84
2022/04/07 07:27:58;;;;;;;7.25;6.12;;;;;;;12.01;68.16;99935.86;1716476;83;21739;-84
2022/04/07 07:31:03;;;;;;;8.15;5.35;;;;;;;12.12;67.69;99929.84;1717453;83;21714;-84
2022/04/07 07:34:10;;;;;;;7.40;5.33;;;;;;;12.22;68.20;99929.52;1692074;85;21257;-83
2022/04/07 07:37:10;;;;;;;6.92;5.15;;;;;;;12.33;67.65;99916.67;1696617;83;21171;-84
2022/04/07 07:40:16;;;;;;;9.78;5.08;;;;;;;12.46;65.66;99920.88;1723780;82;21722;-83
2022/04/07 07:43:23;;;;;;;5.87;4.60;;;;;;;12.60;64.40;99919.09;1740517;82;21181;-83
2022/04/07 07:46:30;;;;;;;7.40;4.45;;;;;;;12.74;63.92;99914.55;1686410;83;21190;-84
2022/04/07 07:49:37;;;;;;;8.53;5.20;;;;;;;12.87;64.00;99917.40;1693565;85;21183;-84
2022/04/07 07:52:43;;;;;;;5.67;4.35;;;;;;;13.00;62.72;99914.74;1717328;83;21213;-83
2022/04/07 07:55:49;;;;;;;13.05;4.53;;;;;;;13.13;60.92;99908.50;1703333;82;21205;-83
2022/04/07 07:58:56;;;;;;;7.72;4.30;;;;;;;13.23;59.37;99910.91;1700699;83;21306;-84
2022/04/07 08:02:02;;;;;;;6.05;4.03;;;;;;;13.34;59.78;99909.47;1771617;81;21746;-84
2022/04/07 08:05:09;;;;;;;6.97;4.20;;;;;;;13.43;55.58;99904.97;1765706;81;21142;-84
2022/04/07 08:08:16;;;;;;;10.30;3.72;;;;;;;13.48;53.90;99901.61;1733897;82;21235;-84
2022/04/07 08:11:22;;;;;;;7.30;4.03;;;;;;;13.54;53.98;99900.77;1733013;82;21172;-84
2022/04/07 08:14:29;;;;;;;7.92;4.15;;;;;;;13.61;54.00;99887.92;1733039;82;21236;-84
2022/04/07 08:17:35;;;;;;;6.08;3.98;;;;;;;13.71;55.35;99891.66;1739158;82;21220;-84
2022/04/07 08:20:41;;;;;;;8.15;4.17;;;;;;;13.81;54.10;99881.10;1740846;82;21220;-84
2022/04/07 08:23:47;;;;;;;10.70;4.40;;;;;;;13.92;52.79;99879.11;1738613;81;21169;-84
2022/04/07 08:26:54;;;;;;;12.47;4.08;;;;;;;14.03;51.40;99873.55;1734731;82;21190;-84
2022/04/07 08:30:02;;;;;;;7.53;3.33;;;;;;;14.12;50.60;99866.78;1735218;82;21619;-84
2022/04/07 08:33:09;;;;;;;5.47;3.60;;;;;;;14.20;49.28;99861.05;1770916;81;21189;-85
2022/04/07 08:36:16;;;;;;;4.92;3.22;;;;;;;14.29;48.17;99849.31;1770491;81;21236;-84
2022/04/07 08:39:21;;;;;;;5.25;3.62;;;;;;;14.35;47.74;99846.24;1756086;81;21692;-84
2022/04/07 08:42:30;;;;;;;4.20;3.20;;;;;;;14.42;45.76;99846.56;1755310;81;21192;-83
2022/04/07 08:45:29;;;;;;;4.53;3.27;;;;;;;14.43;45.11;99840.53;1754066;81;21146;-83
2022/04/07 08:48:35;;;;;;;9.60;3.50;;;;;;;14.47;44.35;99845.40;1763497;81;21157;-84
2022/04/07 08:51:41;;;;;;;6.25;3.50;;;;;;;14.56;45.32;99833.14;1754881;81;21173;-84
2022/04/07 08:54:47;;;;;;;6.42;3.08;;;;;;;14.65;44.76;99828.27;1755930;81;21141;-84
2022/04/07 08:57:52;;;;;;;7.50;3.37;;;;;;;14.78;44.85;99829.62;1757270;81;21153;-84
2022/04/07 09:01:04;;;;;;;7.15;3.00;;;;;;;14.86;43.88;99818.05;1760386;80;21146;-83
2022/04/07 09:04:07;;;;;;;5.67;3.47;;;;;;;14.89;43.54;99812.95;1765541;81;21710;-84
2022/04/07 09:07:14;;;;;;;5.03;2.90;;;;;;;14.93;42.42;99812.84;1769912;81;21736;-83
2022/04/07 09:10:20;;;;;;;8.63;3.70;;;;;;;14.91;42.24;99797.05;1700244;83;21154;-84
2022/04/07 09:13:28;;;;;;;11.88;3.55;;;;;;;14.95;43.33;99804.36;1714801;83;21200;-84
2022/04/07 09:16:34;;;;;;;6.87;3.62;;;;;;;15.01;42.65;99791.95;1712508;82;21161;-84
2022/04/07 09:19:38;;;;;;;6.08;3.37;;;;;;;15.04;42.38;99792.03;1769664;81;21216;-83
2022/04/07 09:22:45;;;;;;;8.78;3.15;;;;;;;15.04;42.52;99783.23;1770700;81;21205;-83
2022/04/07 09:25:58;;;;;;;5.62;2.85;;;;;;;14.97;42.84;99777.46;1775232;80;21153;-83
2022/04/07 09:29:08;;;;;;;8.03;3.30;;;;;;;14.88;44.39;99774.64;1740776;82;21209;-83
2022/04/07 09:32:29;;;;;;;9.75;3.45;;;;;;;14.86;45.05;99769.86;1726140;81;21775;-84
2022/04/07 09:35:29;;;;;;;4.75;3.52;;;;;;;14.81;45.95;99760.88;1760518;81;21280;-83
2022/04/07 09:38:35;;;;;;;5.72;3.55;;;;;;;14.78;45.51;99760.80;1773744;81;21722;-83
2022/04/07 09:41:40;;;;;;;10.80;2.67;;;;;;;14.76;46.71;99751.05;1770416;81;21193;-84
2022/04/07 09:44:46;;;;;;;5.00;3.22;;;;;;;14.79;47.26;99743.74;1770356;81;21726;-84
2022/04/07 09:47:55;;;;;;;5.70;3.15;;;;;;;14.86;46.93;99736.28;1768935;81;21240;-84
2022/04/07 09:51:11;;;;;;;4.72;3.27;;;;;;;14.86;45.85;99741.79;1764885;81;21231;-82
2022/04/07 09:54:16;;;;;;;7.60;3.47;;;;;;;14.85;47.16;99733.22;1739508;81;21772;-83
2022/04/07 09:57:25;;;;;;;5.97;3.17;;;;;;;14.93;46.08;99733.52;1738604;82;21238;-84
2022/04/07 10:00:30;;;;;;;4.45;3.25;;;;;;;15.00;47.30;99728.28;1738759;81;21161;-83
2022/04/07 10:03:38;;;;;;;4.47;3.10;;;;;;;15.13;46.87;99714.14;1751046;82;21255;-83
2022/04/07 10:06:47;;;;;;;5.85;3.20;;;;;;;15.22;45.95;99720.55;1752105;82;21208;-83
2022/04/07 10:09:54;;;;;;;7.70;3.35;;;;;;;15.24;46.29;99719.80;1744014;80;21231;-83
2022/04/07 10:13:00;;;;;;;5.35;3.33;;;;;;;15.31;46.29;99707.36;1741252;82;21211;-84
2022/04/07 10:16:07;;;;;;;5.45;3.45;;;;;;;15.37;44.80;99706.99;1741907;81;21195;-84
2022/04/07 10:19:44;;;;;;;8.63;3.00;;;;;;;15.38;44.09;99705.92;1740532;82;21188;-83
2022/04/07 10:23:16;;;;;;;8.13;3.15;;;;;;;15.41;44.40;99696.69;1740513;81;21210;-84
2022/04/07 10:26:20;;;;;;;;;;;;;;;15.48;44.26;99693.36;1754593;82;21172;-84
2022/04/07 10:29:30;;;;;;;5.05;3.70;;;;;;;15.60;43.41;99684.66;1752425;82;20203;-84
2022/04/07 10:32:42;;;;;;;7.22;3.40;;;;;;;15.64;42.92;99676.83;1720113;83;22070;-84
2022/04/07 10:35:50;;;;;;;4.25;3.22;;;;;;;15.60;43.88;99668.13;1720039;83;21144;-84
2022/04/07 10:38:58;;;;;;;4.70;2.80;;;;;;;15.62;43.11;99675.31;1720253;82;21179;-84
2022/04/07 10:42:05;;;;;;;4.62;3.15;;;;;;;15.58;42.04;99666.14;1692139;85;21190;-84
2022/04/07 10:45:14;;;;;;;5.12;3.52;;;;;;;15.63;43.30;99658.58;1691980;85;21214;-83
2022/04/07 10:48:37;;;;;;;5.58;3.47;;;;;;;15.73;42.64;99647.91;1691532;83;21214;-83
2022/04/07 10:52:07;;;;;;;5.58;2.60;;;;;;;15.82;42.85;99647.09;1692689;85;21190;-84
2022/04/07 10:55:20;;;;;;;5.50;3.10;;;;;;;15.82;41.35;99644.34;1691442;84;21187;-84
2022/04/07 10:58:26;;;;;;;6.15;3.45;;;;;;;15.84;40.95;99649.08;1715171;83;21217;-84
2022/04/07 11:01:41;;;;;;;8.20;4.40;;;;;;;15.86;41.27;99635.92;1715227;83;21754;-84
2022/04/07 11:05:13;;;;;;;5.92;3.60;;;;;;;15.85;40.96;99630.07;1715153;83;21213;-84
2022/04/07 12:04:51;;;;;;;5.92;3.50;;;;;;;16.08;37.95;99525.44;1708263;82;21246;-84
2022/04/07 12:07:57;;;;;;;8.78;3.37;;;;;;;16.02;38.42;99514.49;1698132;84;21221;-77
2022/04/07 12:11:04;;;;;;;4.40;3.30;;;;;;;15.99;38.88;99519.92;1698621;84;21217;-77
2022/04/07 12:14:15;;;;;;;5.00;3.20;;;;;;;15.96;37.65;99514.05;1698415;84;21237;-83
2022/04/07 12:17:22;;;;;;;10.43;3.85;;;;;;;15.96;37.99;99505.23;1697442;84;21208;-77
2022/04/07 12:20:29;;;;;;;12.75;3.22;;;;;;;15.98;37.72;99507.75;1698898;84;21176;-83
2022/04/07 12:23:40;;;;;;;4.60;3.12;;;;;;;15.93;38.00;99494.66;1697452;82;21750;-83
2022/04/07 12:27:04;;;;;;;9.30;3.58;;;;;;;15.97;37.58;99486.23;1707605;83;21199;-84
2022/04/07 12:30:09;;;;;;;6.12;3.55;;;;;;;16.02;37.00;99482.77;1702319;84;21213;-83
2022/04/07 12:33:15;;;;;;;7.20;4.00;;;;;;;15.96;36.70;99474.89;1703111;83;21795;-83
2022/04/07 12:36:37;;;;;;;7.20;3.75;;;;;;;15.91;36.69;99474.75;1703296;84;21193;-83
2022/04/07 12:39:44;;;;;;;8.30;4.40;;;;;;;15.86;36.77;99475.14;1703406;84;21195;-83
2022/04/07 12:42:53;;;;;;;9.78;4.58;;;;;;;15.87;35.91;99476.82;1703987;84;21870;-83
2022/04/07 12:46:08;;;;;;;8.45;4.60;;;;;;;15.86;35.95;99471.84;1703298;84;21720;-83
2022/04/07 12:49:15;;;;;;;9.23;4.40;;;;;;;15.84;36.18;99458.81;1702234;84;21250;-83
2022/04/07 12:52:23;;;;;;;11.00;4.83;;;;;;;15.79;34.45;99467.77;1702581;84;21222;-83
2022/04/07 12:55:31;;;;;;;8.28;4.92;;;;;;;15.77;35.01;99462.20;1703069;83;21229;-82
2022/04/07 12:58:37;;;;;;;9.93;4.83;;;;;;;15.76;35.05;99457.73;1703055;84;21191;-82
2022/04/07 13:07:04;;;;;;;11.57;5.70;;;;;;;15.65;35.46;99453.84;1857219;76;28052;-82
2022/04/07 13:10:10;;;;;;;11.18;4.87;;;;;;;15.57;34.82;99448.09;1817278;79;21169;-82
2022/04/07 13:13:17;;;;;;;8.55;4.67;;;;;;;15.52;34.80;99440.17;1817284;79;21716;-82
2022/04/07 13:16:24;;;;;;;10.82;5.60;;;;;;;15.49;35.36;99441.50;1816166;79;21161;-82
2022/04/07 13:19:30;;;;;;;10.65;5.05;;;;;;;15.54;35.82;99432.54;1815901;78;21232;-83
2022/04/07 13:22:36;;;;;;;11.30;5.60;;;;;;;15.51;35.70;99432.45;1817296;79;21169;-83
2022/04/07 13:25:44;;;;;;;10.03;5.22;;;;;;;15.51;34.77;99420.05;1816785;79;21256;-82
2022/04/07 13:28:50;;;;;;;8.38;4.65;;;;;;;15.49;34.96;99424.96;1817313;79;21224;-82
2022/04/07 13:31:55;;;;;;;10.05;4.90;;;;;;;15.40;34.19;99422.20;1817179;79;21225;-81
2022/04/07 13:35:01;;;;;;;13.48;5.28;;;;;;;15.31;34.93;99418.06;1817202;79;21173;-82
2022/04/07 13:38:07;;;;;;;9.93;4.62;;;;;;;15.24;35.63;99407.63;1817398;79;21175;-82
2022/04/07 13:41:13;;;;;;;7.75;4.92;;;;;;;15.19;35.08;99404.73;1795653;79;21197;-82
2022/04/07 13:44:20;;;;;;;13.93;4.87;;;;;;;15.18;36.04;99402.51;1785221;80;21188;-82
2022/04/07 13:47:26;;;;;;;6.97;4.50;;;;;;;15.20;36.13;99403.14;1783116;80;21197;-82
2022/04/07 13:50:24;;;;;;;8.25;4.20;;;;;;;15.15;35.78;99396.61;1784731;80;21216;-82
2022/04/07 13:53:17;;;;;;;7.22;4.22;;;;;;;15.07;35.92;99395.02;1783848;79;21188;-82
2022/04/07 13:56:03;;;;;;;9.55;4.37;;;;;;;15.04;36.25;99384.44;1783974;80;21228;-82
2022/04/07 13:58:58;;;;;;;8.85;4.28;;;;;;;15.01;36.10;99384.37;1783851;80;21220;-82
2022/04/07 14:01:44;;;;;;;9.53;4.60;;;;;;;14.99;36.52;99378.23;1783388;80;22446;-82
2022/04/07 14:04:38;;;;;;;12.18;4.50;;;;;;;14.95;36.46;99381.14;1785133;80;21153;-82
2022/04/07 14:07:26;;;;;;;7.80;4.20;;;;;;;14.94;36.60;99380.84;1772196;80;21177;-82
2022/04/07 14:10:18;;;;;;;10.72;4.35;;;;;;;14.90;36.65;99371.34;1771850;81;21181;-82
2022/04/07 14:13:24;;;;;;;7.92;4.35;;;;;;;14.83;36.56;99371.42;1770272;81;21229;-82
2022/04/07 14:16:30;;;;;;;7.87;4.00;;;;;;;14.77;36.73;99355.82;1770178;80;21225;-83
2022/04/07 14:19:38;;;;;;;13.62;4.60;;;;;;;14.73;36.53;99349.62;1771122;81;21233;-82
2022/04/07 14:22:47;;;;;;;9.93;4.35;;;;;;;14.70;36.54;99351.44;1771046;81;21189;-82
2022/04/07 14:25:54;;;;;;;6.70;3.85;;;;;;;14.66;36.40;99344.70;1770687;81;21862;-82
2022/04/07 14:29:01;;;;;;;7.12;4.37;;;;;;;14.60;36.86;99334.60;1770583;81;21240;-82
2022/04/07 14:32:06;;;;;;;6.15;3.90;;;;;;;14.56;36.84;99336.95;1770739;81;21189;-82
2022/04/07 14:35:15;;;;;;;8.28;4.25;;;;;;;14.51;36.93;99339.01;1770792;81;21733;-82
2022/04/07 14:38:21;;;;;;;4.85;3.80;;;;;;;14.44;36.60;99312.04;1769642;81;21217;-82
2022/04/07 14:41:27;;;;;;;9.33;4.10;;;;;;;14.39;37.01;99313.25;1770100;81;21811;-82
2022/04/07 14:44:32;;;;;;;7.40;4.17;;;;;;;14.34;36.84;99308.96;1771196;81;21177;-82
2022/04/07 14:47:38;;;;;;;8.95;4.78;;;;;;;14.25;36.78;99305.65;1770179;81;21748;-82
2022/04/07 14:50:43;;;;;;;7.55;4.62;;;;;;;14.18;36.79;99304.04;1771911;81;21178;-82
2022/04/07 14:53:49;;;;;;;6.00;4.00;;;;;;;14.10;37.30;99288.64;1771121;81;21189;-82
2022/04/07 14:56:55;;;;;;;6.97;4.10;;;;;;;14.05;37.30;99285.73;1770852;81;21170;-82
2022/04/07 15:00:02;;;;;;;8.85;4.03;;;;;;;14.00;37.75;99274.56;1770652;81;21201;-82
2022/04/07 15:03:07;;;;;;;12.75;4.55;;;;;;;13.95;37.54;99272.48;1771049;81;21190;-82
2022/04/07 15:06:14;;;;;;;14.75;4.45;;;;;;;13.89;37.57;99268.42;1770583;81;21190;-82
2022/04/07 15:09:20;;;;;;;6.35;3.70;;;;;;;13.80;38.10;99260.44;1773128;80;21228;-82
2022/04/07 15:12:26;;;;;;;7.15;3.80;;;;;;;13.75;37.99;99258.06;1777050;80;21236;-82
2022/04/07 15:15:35;;;;;;;8.45;4.08;;;;;;;13.69;37.68;99239.19;1778440;80;21197;-82
2022/04/07 15:18:42;;;;;;;6.72;4.25;;;;;;;13.67;37.45;99250.08;1776133;80;21208;-82
2022/04/07 15:21:49;;;;;;;6.90;3.95;;;;;;;13.60;37.55;99237.77;1777838;80;21225;-82
2022/04/07 15:24:50;;;;;;;6.37;4.00;;;;;;;13.53;37.84;99236.42;1759000;80;21177;-82
2022/04/07 15:27:58;;;;;;;6.90;3.75;;;;;;;13.45;38.18;99235.30;1765173;81;21739;-82
2022/04/07 15:31:05;;;;;;;5.08;3.50;;;;;;;13.38;38.64;99223.53;1768126;80;21176;-82